UKHH

Kharkiv International Airport

Kharkiv, Ukraine
TAF UKHH 182010Z 1821/1906 08006MPS 6000 OVC010 TEMPO 1821/1906 2100 -SN BR SCT005 BKN007 PROB40 TEMPO 1903/1906 -FZDZ
Issued Valid From Valid To
Dec-18 @ 20:10 UTC
(3 hours ago)
Dec-18 @ 21:00 UTC
(2 hours ago)
Dec-19 @ 06:00 UTC
(in 7 hours)
Dec-18 @ 21:00 to Dec-19 @ 06:00
TAF UKHH 182010Z 1821/1906 08006MPS 6000 OVC010
Wind Visibility Clouds
80° at 12 knots 6,003 meters
  • Overcast at 1,000' AGL
Temporary Dec-18 @ 21:00 to Dec-19 @ 06:00
TEMPO 1821/1906 2100 -SN BR SCT005 BKN007
Visibility Clouds Conditions
2,092 meters
  • Scattered at 500' AGL
  • Broken at 700' AGL
  • Light Snow
  • Mist
Temporary  (Probability 40%) Dec-19 @ 03:00 to Dec-19 @ 06:00
PROB40 TEMPO 1903/1906 -FZDZ
Conditions
  • Light Freezing
  • Light Drizzle
TAF UKHH 182010Z 1821/1906 08006MPS 6000 OVC010 TEMPO 1821/1906 2100 -SN BR SCT005 BKN007 PROB40 TEMPO 1903/1906 -FZDZ
Issued Dec-18 @ 20:10 UTC
(3 hours ago)
Valid From Dec-18 @ 21:00 UTC
(2 hours ago)
Valid To Dec-19 @ 06:00 UTC
(in 7 hours)
Dec-18 @ 21:00 - Dec-19 @ 06:00
Wind Visibility
80° at 12 knots 6,003 meters
Clouds
  • Overcast at 1,000' AGL
Temporary Dec-18 @ 21:00 - Dec-19 @ 06:00
Clouds
  • Scattered at 500' AGL
  • Broken at 700' AGL
Conditions
  • Light Snow
  • Mist
Probability 40% Temporary Dec-19 @ 03:00 - Dec-19 @ 06:00
Conditions
  • Light Freezing
  • Light Drizzle